sensor_id;sensor_type;location;lat;lon;timestamp;P1;durP1;ratioP1;P2;durP2;ratioP2
5026;SDS011;2532;52.480;13.354;2022-08-05T00:01:12;7.57;;;5.97;;
5026;SDS011;2532;52.480;13.354;2022-08-05T00:03:41;12.80;;;6.07;;
5026;SDS011;2532;52.480;13.354;2022-08-05T00:06:09;8.00;;;5.50;;
5026;SDS011;2532;52.480;13.354;2022-08-05T00:08:36;11.60;;;6.90;;
5026;SDS011;2532;52.480;13.354;2022-08-05T00:11:05;8.43;;;6.80;;
5026;SDS011;2532;52.480;13.354;2022-08-05T00:13:34;8.57;;;6.60;;
5026;SDS011;2532;52.480;13.354;2022-08-05T00:16:03;5.87;;;5.27;;
5026;SDS011;2532;52.480;13.354;2022-08-05T00:18:31;5.77;;;5.27;;
5026;SDS011;2532;52.480;13.354;2022-08-05T00:20:59;8.90;;;5.87;;
5026;SDS011;2532;52.480;13.354;2022-08-05T00:23:26;6.43;;;5.50;;
5026;SDS011;2532;52.480;13.354;2022-08-05T00:25:52;5.93;;;5.43;;
5026;SDS011;2532;52.480;13.354;2022-08-05T00:28:19;11.50;;;5.73;;
5026;SDS011;2532;52.480;13.354;2022-08-05T00:30:46;6.33;;;5.70;;
5026;SDS011;2532;52.480;13.354;2022-08-05T00:33:14;7.03;;;5.93;;
5026;SDS011;2532;52.480;13.354;2022-08-05T00:35:41;8.10;;;6.27;;
5026;SDS011;2532;52.480;13.354;2022-08-05T00:38:09;9.63;;;5.63;;
5026;SDS011;2532;52.480;13.354;2022-08-05T00:40:44;6.80;;;6.10;;
5026;SDS011;2532;52.480;13.354;2022-08-05T00:43:12;5.97;;;5.37;;
5026;SDS011;2532;52.480;13.354;2022-08-05T00:45:39;7.47;;;5.33;;
5026;SDS011;2532;52.480;13.354;2022-08-05T00:48:07;12.00;;;6.33;;
5026;SDS011;2532;52.480;13.354;2022-08-05T00:50:35;9.90;;;6.60;;
5026;SDS011;2532;52.480;13.354;2022-08-05T00:53:02;10.43;;;5.97;;
5026;SDS011;2532;52.480;13.354;2022-08-05T00:55:30;13.70;;;6.00;;
5026;SDS011;2532;52.480;13.354;2022-08-05T00:57:57;7.97;;;6.63;;
5026;SDS011;2532;52.480;13.354;2022-08-05T01:00:24;7.70;;;5.80;;
5026;SDS011;2532;52.480;13.354;2022-08-05T01:02:51;7.97;;;6.70;;
5026;SDS011;2532;52.480;13.354;2022-08-05T01:05:18;8.87;;;6.47;;
5026;SDS011;2532;52.480;13.354;2022-08-05T01:07:45;12.97;;;6.93;;
5026;SDS011;2532;52.480;13.354;2022-08-05T01:10:12;9.00;;;7.53;;
5026;SDS011;2532;52.480;13.354;2022-08-05T01:12:44;7.90;;;7.07;;
5026;SDS011;2532;52.480;13.354;2022-08-05T01:15:13;6.17;;;5.60;;
5026;SDS011;2532;52.480;13.354;2022-08-05T01:17:45;16.13;;;9.10;;
5026;SDS011;2532;52.480;13.354;2022-08-05T01:20:25;17.70;;;10.83;;
5026;SDS011;2532;52.480;13.354;2022-08-05T01:23:01;16.40;;;10.47;;
5026;SDS011;2532;52.480;13.354;2022-08-05T01:25:52;12.27;;;8.90;;
5026;SDS011;2532;52.480;13.354;2022-08-05T01:28:26;10.80;;;7.97;;
5026;SDS011;2532;52.480;13.354;2022-08-05T01:31:01;14.53;;;8.37;;
5026;SDS011;2532;52.480;13.354;2022-08-05T01:33:34;14.73;;;8.73;;
5026;SDS011;2532;52.480;13.354;2022-08-05T01:36:08;13.23;;;8.40;;
5026;SDS011;2532;52.480;13.354;2022-08-05T01:38:38;11.70;;;8.40;;
5026;SDS011;2532;52.480;13.354;2022-08-05T01:41:05;16.77;;;8.07;;
5026;SDS011;2532;52.480;13.354;2022-08-05T01:43:35;12.10;;;8.20;;
5026;SDS011;2532;52.480;13.354;2022-08-05T01:46:03;10.13;;;7.80;;
5026;SDS011;2532;52.480;13.354;2022-08-05T01:48:30;12.60;;;8.27;;
5026;SDS011;2532;52.480;13.354;2022-08-05T01:51:01;13.20;;;6.80;;
5026;SDS011;2532;52.480;13.354;2022-08-05T01:53:29;18.40;;;7.60;;
5026;SDS011;2532;52.480;13.354;2022-08-05T01:55:59;11.93;;;7.50;;
5026;SDS011;2532;52.480;13.354;2022-08-05T01:58:28;12.00;;;7.23;;
5026;SDS011;2532;52.480;13.354;2022-08-05T02:00:57;18.57;;;8.47;;
5026;SDS011;2532;52.480;13.354;2022-08-05T02:03:27;10.63;;;7.30;;
5026;SDS011;2532;52.480;13.354;2022-08-05T02:05:58;12.27;;;7.37;;
5026;SDS011;2532;52.480;13.354;2022-08-05T02:08:26;14.87;;;6.83;;
5026;SDS011;2532;52.480;13.354;2022-08-05T02:10:55;16.17;;;7.27;;
5026;SDS011;2532;52.480;13.354;2022-08-05T02:13:27;11.00;;;6.53;;
5026;SDS011;2532;52.480;13.354;2022-08-05T02:16:03;9.93;;;6.90;;
5026;SDS011;2532;52.480;13.354;2022-08-05T02:18:36;11.57;;;6.80;;
5026;SDS011;2532;52.480;13.354;2022-08-05T02:21:08;8.43;;;6.70;;
5026;SDS011;2532;52.480;13.354;2022-08-05T02:23:39;14.40;;;6.40;;
5026;SDS011;2532;52.480;13.354;2022-08-05T02:26:08;11.90;;;7.07;;
5026;SDS011;2532;52.480;13.354;2022-08-05T02:28:39;10.33;;;6.77;;
5026;SDS011;2532;52.480;13.354;2022-08-05T02:31:10;10.60;;;6.67;;
5026;SDS011;2532;52.480;13.354;2022-08-05T02:33:41;9.23;;;6.60;;
5026;SDS011;2532;52.480;13.354;2022-08-05T02:36:21;9.50;;;6.40;;
5026;SDS011;2532;52.480;13.354;2022-08-05T02:38:50;12.07;;;6.40;;
5026;SDS011;2532;52.480;13.354;2022-08-05T02:41:20;7.93;;;6.30;;
5026;SDS011;2532;52.480;13.354;2022-08-05T02:43:48;8.90;;;5.80;;
5026;SDS011;2532;52.480;13.354;2022-08-05T02:46:18;12.40;;;6.10;;
5026;SDS011;2532;52.480;13.354;2022-08-05T02:48:46;8.07;;;5.30;;
5026;SDS011;2532;52.480;13.354;2022-08-05T02:51:14;6.13;;;5.53;;
5026;SDS011;2532;52.480;13.354;2022-08-05T02:53:42;7.07;;;4.90;;
5026;SDS011;2532;52.480;13.354;2022-08-05T02:56:11;7.50;;;5.20;;
5026;SDS011;2532;52.480;13.354;2022-08-05T02:58:38;8.13;;;5.73;;
5026;SDS011;2532;52.480;13.354;2022-08-05T03:01:06;6.13;;;4.97;;
5026;SDS011;2532;52.480;13.354;2022-08-05T03:03:37;6.27;;;5.20;;
5026;SDS011;2532;52.480;13.354;2022-08-05T03:06:05;7.40;;;5.03;;
5026;SDS011;2532;52.480;13.354;2022-08-05T03:08:34;8.53;;;5.33;;
5026;SDS011;2532;52.480;13.354;2022-08-05T03:11:02;12.20;;;5.90;;
5026;SDS011;2532;52.480;13.354;2022-08-05T03:13:29;5.63;;;5.13;;
5026;SDS011;2532;52.480;13.354;2022-08-05T03:15:56;8.60;;;4.97;;
5026;SDS011;2532;52.480;13.354;2022-08-05T03:18:22;11.97;;;5.63;;
5026;SDS011;2532;52.480;13.354;2022-08-05T03:20:51;10.03;;;5.30;;
5026;SDS011;2532;52.480;13.354;2022-08-05T03:23:17;6.97;;;5.33;;
5026;SDS011;2532;52.480;13.354;2022-08-05T03:25:44;10.43;;;5.47;;
5026;SDS011;2532;52.480;13.354;2022-08-05T03:28:11;7.70;;;5.23;;
5026;SDS011;2532;52.480;13.354;2022-08-05T03:30:39;9.80;;;5.63;;
5026;SDS011;2532;52.480;13.354;2022-08-05T03:33:06;7.90;;;4.90;;
5026;SDS011;2532;52.480;13.354;2022-08-05T03:35:33;13.10;;;6.37;;
5026;SDS011;2532;52.480;13.354;2022-08-05T03:38:02;10.10;;;5.27;;
5026;SDS011;2532;52.480;13.354;2022-08-05T03:40:28;7.20;;;4.77;;
5026;SDS011;2532;52.480;13.354;2022-08-05T03:42:55;6.90;;;5.33;;
5026;SDS011;2532;52.480;13.354;2022-08-05T03:45:22;5.87;;;5.27;;
5026;SDS011;2532;52.480;13.354;2022-08-05T03:47:49;19.47;;;5.83;;
5026;SDS011;2532;52.480;13.354;2022-08-05T03:50:16;6.10;;;5.50;;
5026;SDS011;2532;52.480;13.354;2022-08-05T03:52:44;13.50;;;5.10;;
5026;SDS011;2532;52.480;13.354;2022-08-05T03:55:21;7.47;;;5.30;;
5026;SDS011;2532;52.480;13.354;2022-08-05T03:57:52;7.27;;;4.90;;
5026;SDS011;2532;52.480;13.354;2022-08-05T04:00:21;6.50;;;4.70;;
5026;SDS011;2532;52.480;13.354;2022-08-05T04:02:50;8.60;;;5.40;;
5026;SDS011;2532;52.480;13.354;2022-08-05T04:05:20;6.90;;;4.90;;
5026;SDS011;2532;52.480;13.354;2022-08-05T04:07:48;7.77;;;5.50;;
5026;SDS011;2532;52.480;13.354;2022-08-05T04:10:16;6.90;;;5.03;;
5026;SDS011;2532;52.480;13.354;2022-08-05T04:12:45;8.63;;;5.20;;
5026;SDS011;2532;52.480;13.354;2022-08-05T04:15:12;6.07;;;5.40;;
5026;SDS011;2532;52.480;13.354;2022-08-05T04:17:39;9.80;;;5.87;;
5026;SDS011;2532;52.480;13.354;2022-08-05T04:20:07;5.80;;;5.30;;
5026;SDS011;2532;52.480;13.354;2022-08-05T04:22:43;9.10;;;5.17;;
5026;SDS011;2532;52.480;13.354;2022-08-05T04:25:10;10.50;;;5.87;;
5026;SDS011;2532;52.480;13.354;2022-08-05T04:27:37;10.87;;;5.97;;
5026;SDS011;2532;52.480;13.354;2022-08-05T04:30:07;8.27;;;5.63;;
5026;SDS011;2532;52.480;13.354;2022-08-05T04:32:35;9.20;;;6.30;;
5026;SDS011;2532;52.480;13.354;2022-08-05T04:35:02;6.87;;;5.53;;
5026;SDS011;2532;52.480;13.354;2022-08-05T04:37:29;9.77;;;5.43;;
5026;SDS011;2532;52.480;13.354;2022-08-05T04:39:56;13.27;;;5.97;;
5026;SDS011;2532;52.480;13.354;2022-08-05T04:42:23;7.70;;;5.77;;
5026;SDS011;2532;52.480;13.354;2022-08-05T04:44:50;7.67;;;6.03;;
5026;SDS011;2532;52.480;13.354;2022-08-05T04:47:18;5.83;;;5.23;;
5026;SDS011;2532;52.480;13.354;2022-08-05T04:49:45;7.17;;;5.53;;
5026;SDS011;2532;52.480;13.354;2022-08-05T04:52:12;7.60;;;5.43;;
5026;SDS011;2532;52.480;13.354;2022-08-05T04:54:38;5.97;;;5.43;;
5026;SDS011;2532;52.480;13.354;2022-08-05T04:57:05;6.83;;;5.60;;
5026;SDS011;2532;52.480;13.354;2022-08-05T04:59:32;8.97;;;6.13;;
5026;SDS011;2532;52.480;13.354;2022-08-05T05:01:59;5.40;;;4.90;;
5026;SDS011;2532;52.480;13.354;2022-08-05T05:04:27;8.27;;;5.83;;
5026;SDS011;2532;52.480;13.354;2022-08-05T05:06:54;6.20;;;5.63;;
5026;SDS011;2532;52.480;13.354;2022-08-05T05:09:21;8.50;;;5.23;;
5026;SDS011;2532;52.480;13.354;2022-08-05T05:11:47;7.10;;;6.40;;
5026;SDS011;2532;52.480;13.354;2022-08-05T05:14:14;6.30;;;5.60;;
5026;SDS011;2532;52.480;13.354;2022-08-05T05:16:41;5.63;;;5.13;;
5026;SDS011;2532;52.480;13.354;2022-08-05T05:19:08;5.33;;;4.83;;
5026;SDS011;2532;52.480;13.354;2022-08-05T05:21:36;7.40;;;5.90;;
5026;SDS011;2532;52.480;13.354;2022-08-05T05:24:03;7.20;;;5.43;;
5026;SDS011;2532;52.480;13.354;2022-08-05T05:26:31;6.87;;;5.43;;
5026;SDS011;2532;52.480;13.354;2022-08-05T05:28:57;13.43;;;5.43;;
5026;SDS011;2532;52.480;13.354;2022-08-05T05:31:25;8.80;;;6.13;;
5026;SDS011;2532;52.480;13.354;2022-08-05T05:33:51;12.70;;;5.63;;
5026;SDS011;2532;52.480;13.354;2022-08-05T05:36:18;7.80;;;5.37;;
5026;SDS011;2532;52.480;13.354;2022-08-05T05:38:46;6.70;;;5.43;;
5026;SDS011;2532;52.480;13.354;2022-08-05T05:41:15;10.30;;;6.20;;
5026;SDS011;2532;52.480;13.354;2022-08-05T05:43:42;13.47;;;5.30;;
5026;SDS011;2532;52.480;13.354;2022-08-05T05:46:09;6.53;;;5.77;;
5026;SDS011;2532;52.480;13.354;2022-08-05T05:48:36;7.90;;;5.73;;
5026;SDS011;2532;52.480;13.354;2022-08-05T05:51:02;6.13;;;5.47;;
5026;SDS011;2532;52.480;13.354;2022-08-05T05:53:29;8.73;;;6.17;;
5026;SDS011;2532;52.480;13.354;2022-08-05T05:55:57;6.57;;;5.47;;
5026;SDS011;2532;52.480;13.354;2022-08-05T05:58:24;8.03;;;6.53;;
5026;SDS011;2532;52.480;13.354;2022-08-05T06:00:51;6.63;;;5.40;;
5026;SDS011;2532;52.480;13.354;2022-08-05T06:03:18;7.00;;;5.87;;
5026;SDS011;2532;52.480;13.354;2022-08-05T06:05:45;11.77;;;5.67;;
5026;SDS011;2532;52.480;13.354;2022-08-05T06:08:12;7.60;;;6.00;;
5026;SDS011;2532;52.480;13.354;2022-08-05T06:10:39;7.73;;;5.63;;
5026;SDS011;2532;52.480;13.354;2022-08-05T06:13:08;6.80;;;5.33;;
5026;SDS011;2532;52.480;13.354;2022-08-05T06:15:34;6.80;;;5.43;;
5026;SDS011;2532;52.480;13.354;2022-08-05T06:18:01;7.40;;;5.73;;
5026;SDS011;2532;52.480;13.354;2022-08-05T06:20:28;6.10;;;5.23;;
5026;SDS011;2532;52.480;13.354;2022-08-05T06:22:55;12.33;;;5.07;;
5026;SDS011;2532;52.480;13.354;2022-08-05T06:25:23;6.20;;;5.30;;
5026;SDS011;2532;52.480;13.354;2022-08-05T06:27:50;7.10;;;4.90;;
5026;SDS011;2532;52.480;13.354;2022-08-05T06:30:18;9.20;;;5.17;;
5026;SDS011;2532;52.480;13.354;2022-08-05T06:32:45;7.37;;;5.70;;
5026;SDS011;2532;52.480;13.354;2022-08-05T06:35:12;8.70;;;4.50;;
5026;SDS011;2532;52.480;13.354;2022-08-05T06:37:39;5.90;;;4.87;;
5026;SDS011;2532;52.480;13.354;2022-08-05T06:40:06;5.37;;;4.67;;
5026;SDS011;2532;52.480;13.354;2022-08-05T06:42:33;5.30;;;4.80;;
5026;SDS011;2532;52.480;13.354;2022-08-05T06:45:00;5.10;;;4.27;;
5026;SDS011;2532;52.480;13.354;2022-08-05T06:47:28;6.13;;;5.17;;
5026;SDS011;2532;52.480;13.354;2022-08-05T06:49:55;6.97;;;4.83;;
5026;SDS011;2532;52.480;13.354;2022-08-05T06:52:22;8.67;;;5.40;;
5026;SDS011;2532;52.480;13.354;2022-08-05T06:54:49;10.37;;;4.50;;
5026;SDS011;2532;52.480;13.354;2022-08-05T06:57:15;7.17;;;4.47;;
5026;SDS011;2532;52.480;13.354;2022-08-05T06:59:42;5.43;;;4.53;;
5026;SDS011;2532;52.480;13.354;2022-08-05T07:02:10;5.90;;;4.10;;
5026;SDS011;2532;52.480;13.354;2022-08-05T07:04:38;9.30;;;4.70;;
5026;SDS011;2532;52.480;13.354;2022-08-05T07:07:05;5.17;;;4.67;;
5026;SDS011;2532;52.480;13.354;2022-08-05T07:09:32;5.93;;;5.13;;
5026;SDS011;2532;52.480;13.354;2022-08-05T07:11:58;6.17;;;4.10;;
5026;SDS011;2532;52.480;13.354;2022-08-05T07:14:25;5.80;;;3.97;;
5026;SDS011;2532;52.480;13.354;2022-08-05T07:17:10;5.57;;;4.40;;
5026;SDS011;2532;52.480;13.354;2022-08-05T07:19:38;5.20;;;4.03;;
5026;SDS011;2532;52.480;13.354;2022-08-05T07:22:05;7.10;;;4.93;;
5026;SDS011;2532;52.480;13.354;2022-08-05T07:24:32;5.00;;;4.00;;
5026;SDS011;2532;52.480;13.354;2022-08-05T07:26:59;6.23;;;4.23;;
5026;SDS011;2532;52.480;13.354;2022-08-05T07:29:25;6.57;;;5.50;;
5026;SDS011;2532;52.480;13.354;2022-08-05T07:31:52;6.00;;;4.10;;
5026;SDS011;2532;52.480;13.354;2022-08-05T07:34:19;5.60;;;4.07;;
5026;SDS011;2532;52.480;13.354;2022-08-05T07:36:47;6.20;;;4.70;;
5026;SDS011;2532;52.480;13.354;2022-08-05T07:39:14;7.47;;;4.97;;
5026;SDS011;2532;52.480;13.354;2022-08-05T07:41:41;7.43;;;4.87;;
5026;SDS011;2532;52.480;13.354;2022-08-05T07:44:07;7.17;;;3.87;;
5026;SDS011;2532;52.480;13.354;2022-08-05T07:46:35;9.00;;;5.43;;
5026;SDS011;2532;52.480;13.354;2022-08-05T07:49:02;7.77;;;4.07;;
5026;SDS011;2532;52.480;13.354;2022-08-05T07:51:29;5.50;;;4.20;;
5026;SDS011;2532;52.480;13.354;2022-08-05T07:53:58;5.20;;;4.20;;
5026;SDS011;2532;52.480;13.354;2022-08-05T07:56:25;4.63;;;4.20;;
5026;SDS011;2532;52.480;13.354;2022-08-05T07:58:52;5.60;;;4.80;;
5026;SDS011;2532;52.480;13.354;2022-08-05T08:01:21;6.17;;;4.60;;
5026;SDS011;2532;52.480;13.354;2022-08-05T08:03:50;5.10;;;4.50;;
5026;SDS011;2532;52.480;13.354;2022-08-05T08:06:17;8.60;;;5.23;;
5026;SDS011;2532;52.480;13.354;2022-08-05T08:08:44;5.13;;;4.20;;
5026;SDS011;2532;52.480;13.354;2022-08-05T08:11:12;9.17;;;5.23;;
5026;SDS011;2532;52.480;13.354;2022-08-05T08:13:39;7.73;;;4.60;;
5026;SDS011;2532;52.480;13.354;2022-08-05T08:16:06;7.57;;;5.03;;
5026;SDS011;2532;52.480;13.354;2022-08-05T08:18:33;7.93;;;4.80;;
5026;SDS011;2532;52.480;13.354;2022-08-05T08:21:00;6.60;;;4.53;;
5026;SDS011;2532;52.480;13.354;2022-08-05T08:23:27;5.80;;;5.00;;
5026;SDS011;2532;52.480;13.354;2022-08-05T08:25:54;6.40;;;4.63;;
5026;SDS011;2532;52.480;13.354;2022-08-05T08:28:22;6.57;;;4.80;;
5026;SDS011;2532;52.480;13.354;2022-08-05T08:30:49;5.50;;;4.40;;
5026;SDS011;2532;52.480;13.354;2022-08-05T08:33:16;5.13;;;4.30;;
5026;SDS011;2532;52.480;13.354;2022-08-05T08:35:43;9.13;;;4.57;;
5026;SDS011;2532;52.480;13.354;2022-08-05T08:38:11;6.97;;;4.10;;
5026;SDS011;2532;52.480;13.354;2022-08-05T08:40:40;7.77;;;4.37;;
5026;SDS011;2532;52.480;13.354;2022-08-05T08:43:08;5.73;;;4.13;;
5026;SDS011;2532;52.480;13.354;2022-08-05T08:45:39;5.63;;;3.93;;
5026;SDS011;2532;52.480;13.354;2022-08-05T08:48:06;8.10;;;4.20;;
5026;SDS011;2532;52.480;13.354;2022-08-05T08:50:35;7.60;;;4.93;;
5026;SDS011;2532;52.480;13.354;2022-08-05T08:53:04;6.83;;;4.93;;
5026;SDS011;2532;52.480;13.354;2022-08-05T08:55:34;12.40;;;6.40;;
5026;SDS011;2532;52.480;13.354;2022-08-05T08:58:01;5.33;;;3.93;;
5026;SDS011;2532;52.480;13.354;2022-08-05T09:00:28;8.07;;;5.07;;
5026;SDS011;2532;52.480;13.354;2022-08-05T09:02:57;6.10;;;5.17;;
5026;SDS011;2532;52.480;13.354;2022-08-05T09:05:24;6.70;;;5.40;;
5026;SDS011;2532;52.480;13.354;2022-08-05T09:07:51;9.60;;;5.40;;
5026;SDS011;2532;52.480;13.354;2022-08-05T09:10:19;5.20;;;4.60;;
5026;SDS011;2532;52.480;13.354;2022-08-05T09:12:46;6.27;;;5.10;;
5026;SDS011;2532;52.480;13.354;2022-08-05T09:15:13;5.40;;;4.70;;
5026;SDS011;2532;52.480;13.354;2022-08-05T09:17:41;8.37;;;6.73;;
5026;SDS011;2532;52.480;13.354;2022-08-05T09:20:10;8.40;;;5.77;;
5026;SDS011;2532;52.480;13.354;2022-08-05T09:25:31;15.70;;;5.40;;
5026;SDS011;2532;52.480;13.354;2022-08-05T09:28:04;6.50;;;4.87;;
5026;SDS011;2532;52.480;13.354;2022-08-05T09:30:41;5.87;;;5.27;;
5026;SDS011;2532;52.480;13.354;2022-08-05T09:33:09;8.60;;;5.40;;
5026;SDS011;2532;52.480;13.354;2022-08-05T09:35:37;8.40;;;5.20;;
5026;SDS011;2532;52.480;13.354;2022-08-05T09:38:17;8.00;;;5.67;;
5026;SDS011;2532;52.480;13.354;2022-08-05T09:40:44;8.00;;;4.63;;
5026;SDS011;2532;52.480;13.354;2022-08-05T09:43:23;7.97;;;4.90;;
5026;SDS011;2532;52.480;13.354;2022-08-05T09:45:55;5.73;;;4.13;;
5026;SDS011;2532;52.480;13.354;2022-08-05T09:48:22;5.67;;;5.10;;
5026;SDS011;2532;52.480;13.354;2022-08-05T09:50:53;6.97;;;4.60;;
5026;SDS011;2532;52.480;13.354;2022-08-05T09:53:21;8.37;;;4.70;;
5026;SDS011;2532;52.480;13.354;2022-08-05T09:55:52;6.13;;;5.20;;
5026;SDS011;2532;52.480;13.354;2022-08-05T09:58:20;9.90;;;5.00;;
5026;SDS011;2532;52.480;13.354;2022-08-05T10:00:55;5.53;;;3.90;;
5026;SDS011;2532;52.480;13.354;2022-08-05T10:03:23;10.23;;;4.50;;
5026;SDS011;2532;52.480;13.354;2022-08-05T10:06:05;5.80;;;4.60;;
5026;SDS011;2532;52.480;13.354;2022-08-05T10:08:35;6.97;;;4.47;;
5026;SDS011;2532;52.480;13.354;2022-08-05T10:11:04;5.50;;;4.13;;
5026;SDS011;2532;52.480;13.354;2022-08-05T10:13:41;4.63;;;4.23;;
5026;SDS011;2532;52.480;13.354;2022-08-05T10:18:54;7.23;;;5.00;;
5026;SDS011;2532;52.480;13.354;2022-08-05T10:21:22;6.80;;;4.80;;
5026;SDS011;2532;52.480;13.354;2022-08-05T10:23:50;11.30;;;5.23;;
5026;SDS011;2532;52.480;13.354;2022-08-05T10:26:17;6.63;;;4.20;;
5026;SDS011;2532;52.480;13.354;2022-08-05T10:28:44;7.67;;;4.60;;
5026;SDS011;2532;52.480;13.354;2022-08-05T10:31:13;9.10;;;4.40;;
5026;SDS011;2532;52.480;13.354;2022-08-05T10:33:41;7.37;;;4.90;;
5026;SDS011;2532;52.480;13.354;2022-08-05T10:36:08;7.63;;;5.03;;
5026;SDS011;2532;52.480;13.354;2022-08-05T10:38:36;12.63;;;5.57;;
5026;SDS011;2532;52.480;13.354;2022-08-05T10:41:08;7.43;;;5.00;;
5026;SDS011;2532;52.480;13.354;2022-08-05T10:43:44;8.40;;;6.07;;
5026;SDS011;2532;52.480;13.354;2022-08-05T10:46:16;7.23;;;5.30;;
5026;SDS011;2532;52.480;13.354;2022-08-05T10:48:46;8.20;;;4.50;;
5026;SDS011;2532;52.480;13.354;2022-08-05T10:51:14;5.50;;;5.00;;
5026;SDS011;2532;52.480;13.354;2022-08-05T10:53:51;7.30;;;4.07;;
5026;SDS011;2532;52.480;13.354;2022-08-05T10:56:19;6.60;;;5.30;;
5026;SDS011;2532;52.480;13.354;2022-08-05T10:59:00;11.00;;;5.13;;
5026;SDS011;2532;52.480;13.354;2022-08-05T11:01:30;6.50;;;5.03;;
5026;SDS011;2532;52.480;13.354;2022-08-05T11:04:03;5.90;;;4.90;;
5026;SDS011;2532;52.480;13.354;2022-08-05T11:06:32;6.20;;;4.83;;
5026;SDS011;2532;52.480;13.354;2022-08-05T11:09:12;4.87;;;3.83;;
5026;SDS011;2532;52.480;13.354;2022-08-05T11:11:42;4.83;;;4.33;;
5026;SDS011;2532;52.480;13.354;2022-08-05T11:14:11;10.57;;;4.50;;
5026;SDS011;2532;52.480;13.354;2022-08-05T11:16:38;6.70;;;4.27;;
5026;SDS011;2532;52.480;13.354;2022-08-05T11:19:24;4.30;;;3.80;;
5026;SDS011;2532;52.480;13.354;2022-08-05T11:21:52;5.97;;;4.37;;
5026;SDS011;2532;52.480;13.354;2022-08-05T11:24:21;5.23;;;4.50;;
5026;SDS011;2532;52.480;13.354;2022-08-05T11:29:51;7.10;;;4.60;;
5026;SDS011;2532;52.480;13.354;2022-08-05T11:32:25;4.87;;;4.37;;
5026;SDS011;2532;52.480;13.354;2022-08-05T11:34:54;5.43;;;4.87;;
5026;SDS011;2532;52.480;13.354;2022-08-05T11:43:27;6.70;;;5.30;;
5026;SDS011;2532;52.480;13.354;2022-08-05T11:45:55;7.30;;;5.00;;
5026;SDS011;2532;52.480;13.354;2022-08-05T11:48:22;8.60;;;5.03;;
5026;SDS011;2532;52.480;13.354;2022-08-05T11:50:50;7.13;;;5.17;;
5026;SDS011;2532;52.480;13.354;2022-08-05T11:53:18;4.83;;;4.30;;
5026;SDS011;2532;52.480;13.354;2022-08-05T11:55:55;6.20;;;4.87;;
5026;SDS011;2532;52.480;13.354;2022-08-05T11:58:28;5.47;;;4.50;;
5026;SDS011;2532;52.480;13.354;2022-08-05T12:01:02;6.87;;;4.53;;
5026;SDS011;2532;52.480;13.354;2022-08-05T12:03:38;7.40;;;5.70;;
5026;SDS011;2532;52.480;13.354;2022-08-05T12:06:06;6.70;;;4.10;;
5026;SDS011;2532;52.480;13.354;2022-08-05T12:08:38;8.57;;;4.60;;
5026;SDS011;2532;52.480;13.354;2022-08-05T12:11:07;10.90;;;4.27;;
5026;SDS011;2532;52.480;13.354;2022-08-05T12:13:35;6.17;;;4.10;;
5026;SDS011;2532;52.480;13.354;2022-08-05T12:16:03;7.97;;;4.40;;
5026;SDS011;2532;52.480;13.354;2022-08-05T12:18:31;5.50;;;4.97;;
5026;SDS011;2532;52.480;13.354;2022-08-05T12:21:07;6.20;;;5.30;;
5026;SDS011;2532;52.480;13.354;2022-08-05T12:23:35;5.40;;;4.90;;
5026;SDS011;2532;52.480;13.354;2022-08-05T12:26:02;5.77;;;4.57;;
5026;SDS011;2532;52.480;13.354;2022-08-05T12:28:30;6.73;;;4.50;;
5026;SDS011;2532;52.480;13.354;2022-08-05T12:30:59;6.00;;;4.53;;
5026;SDS011;2532;52.480;13.354;2022-08-05T12:33:26;5.50;;;4.63;;
5026;SDS011;2532;52.480;13.354;2022-08-05T12:35:53;6.90;;;4.80;;
5026;SDS011;2532;52.480;13.354;2022-08-05T12:38:20;8.30;;;5.00;;
5026;SDS011;2532;52.480;13.354;2022-08-05T12:40:47;6.40;;;4.70;;
5026;SDS011;2532;52.480;13.354;2022-08-05T12:43:14;10.37;;;6.40;;
5026;SDS011;2532;52.480;13.354;2022-08-05T12:45:51;6.10;;;4.30;;
5026;SDS011;2532;52.480;13.354;2022-08-05T12:48:20;7.33;;;5.20;;
5026;SDS011;2532;52.480;13.354;2022-08-05T12:53:41;11.00;;;6.20;;
5026;SDS011;2532;52.480;13.354;2022-08-05T12:56:15;6.00;;;4.93;;
5026;SDS011;2532;52.480;13.354;2022-08-05T12:58:43;7.73;;;5.03;;
5026;SDS011;2532;52.480;13.354;2022-08-05T13:01:12;5.63;;;5.03;;
5026;SDS011;2532;52.480;13.354;2022-08-05T13:03:40;5.53;;;4.40;;
5026;SDS011;2532;52.480;13.354;2022-08-05T13:06:08;5.30;;;4.57;;
5026;SDS011;2532;52.480;13.354;2022-08-05T13:08:38;5.23;;;4.10;;
5026;SDS011;2532;52.480;13.354;2022-08-05T13:11:05;7.80;;;3.87;;
5026;SDS011;2532;52.480;13.354;2022-08-05T13:13:32;7.40;;;4.23;;
5026;SDS011;2532;52.480;13.354;2022-08-05T13:16:10;6.10;;;5.50;;
5026;SDS011;2532;52.480;13.354;2022-08-05T13:18:38;8.47;;;4.70;;
5026;SDS011;2532;52.480;13.354;2022-08-05T13:21:06;5.73;;;4.90;;
5026;SDS011;2532;52.480;13.354;2022-08-05T13:23:33;6.40;;;4.77;;
5026;SDS011;2532;52.480;13.354;2022-08-05T13:26:01;5.93;;;4.23;;
5026;SDS011;2532;52.480;13.354;2022-08-05T13:28:29;5.27;;;4.33;;
5026;SDS011;2532;52.480;13.354;2022-08-05T13:30:56;5.50;;;4.77;;
5026;SDS011;2532;52.480;13.354;2022-08-05T13:33:23;6.30;;;4.50;;
5026;SDS011;2532;52.480;13.354;2022-08-05T13:35:50;5.70;;;4.90;;
5026;SDS011;2532;52.480;13.354;2022-08-05T13:38:18;6.10;;;4.27;;
5026;SDS011;2532;52.480;13.354;2022-08-05T13:40:45;5.10;;;4.60;;
5026;SDS011;2532;52.480;13.354;2022-08-05T13:43:12;5.93;;;5.20;;
5026;SDS011;2532;52.480;13.354;2022-08-05T13:45:39;6.90;;;4.50;;
5026;SDS011;2532;52.480;13.354;2022-08-05T13:48:06;5.83;;;4.33;;
5026;SDS011;2532;52.480;13.354;2022-08-05T13:50:32;4.87;;;4.37;;
5026;SDS011;2532;52.480;13.354;2022-08-05T13:52:59;5.10;;;4.60;;
5026;SDS011;2532;52.480;13.354;2022-08-05T13:55:27;5.63;;;5.13;;
5026;SDS011;2532;52.480;13.354;2022-08-05T13:57:54;5.50;;;4.53;;
5026;SDS011;2532;52.480;13.354;2022-08-05T14:00:21;5.17;;;4.23;;
5026;SDS011;2532;52.480;13.354;2022-08-05T14:02:47;5.20;;;4.70;;
5026;SDS011;2532;52.480;13.354;2022-08-05T14:05:15;4.73;;;4.23;;
5026;SDS011;2532;52.480;13.354;2022-08-05T14:07:43;5.90;;;4.47;;
5026;SDS011;2532;52.480;13.354;2022-08-05T14:10:11;18.67;;;4.33;;
5026;SDS011;2532;52.480;13.354;2022-08-05T14:12:40;5.00;;;4.50;;
5026;SDS011;2532;52.480;13.354;2022-08-05T14:15:08;5.33;;;4.40;;
5026;SDS011;2532;52.480;13.354;2022-08-05T14:17:36;5.33;;;4.40;;
5026;SDS011;2532;52.480;13.354;2022-08-05T14:20:03;4.97;;;4.07;;
5026;SDS011;2532;52.480;13.354;2022-08-05T14:22:31;7.07;;;4.90;;
5026;SDS011;2532;52.480;13.354;2022-08-05T14:24:58;7.00;;;5.50;;
5026;SDS011;2532;52.480;13.354;2022-08-05T14:27:25;6.07;;;4.33;;
5026;SDS011;2532;52.480;13.354;2022-08-05T14:29:53;7.43;;;4.10;;
5026;SDS011;2532;52.480;13.354;2022-08-05T14:32:19;6.97;;;5.03;;
5026;SDS011;2532;52.480;13.354;2022-08-05T14:34:46;5.70;;;4.53;;
5026;SDS011;2532;52.480;13.354;2022-08-05T14:37:13;6.70;;;5.00;;
5026;SDS011;2532;52.480;13.354;2022-08-05T14:39:41;6.57;;;5.40;;
5026;SDS011;2532;52.480;13.354;2022-08-05T14:42:08;9.73;;;5.10;;
5026;SDS011;2532;52.480;13.354;2022-08-05T14:44:34;5.20;;;4.70;;
5026;SDS011;2532;52.480;13.354;2022-08-05T14:47:03;8.30;;;4.90;;
5026;SDS011;2532;52.480;13.354;2022-08-05T14:49:30;7.27;;;5.60;;
5026;SDS011;2532;52.480;13.354;2022-08-05T14:51:56;7.23;;;5.27;;
5026;SDS011;2532;52.480;13.354;2022-08-05T14:54:24;7.57;;;5.77;;
5026;SDS011;2532;52.480;13.354;2022-08-05T14:56:56;6.93;;;4.47;;
5026;SDS011;2532;52.480;13.354;2022-08-05T14:59:24;6.33;;;4.87;;
5026;SDS011;2532;52.480;13.354;2022-08-05T15:01:51;6.90;;;4.80;;
5026;SDS011;2532;52.480;13.354;2022-08-05T15:04:20;6.67;;;5.00;;
5026;SDS011;2532;52.480;13.354;2022-08-05T15:06:47;8.00;;;5.27;;
5026;SDS011;2532;52.480;13.354;2022-08-05T15:09:14;7.53;;;5.77;;
5026;SDS011;2532;52.480;13.354;2022-08-05T15:11:41;11.23;;;6.23;;
5026;SDS011;2532;52.480;13.354;2022-08-05T15:14:07;12.20;;;6.60;;
5026;SDS011;2532;52.480;13.354;2022-08-05T15:16:34;9.60;;;6.13;;
5026;SDS011;2532;52.480;13.354;2022-08-05T15:19:01;7.63;;;6.00;;
5026;SDS011;2532;52.480;13.354;2022-08-05T15:21:29;6.97;;;5.07;;
5026;SDS011;2532;52.480;13.354;2022-08-05T15:23:56;8.53;;;6.93;;